Time;durP1;ratioP1;P1;durP2;ratioP2;P2;SDS_P1;SDS_P2;PMS_P1;PMS_P2;Temp;Humidity;BMP_temperature;BMP_pressure;BME280_temperature;BME280_humidity;BME280_pressure;Samples;Min_cycle;Max_cycle;Signal;HPM_P1;HPM_P2
2021/01/26 00:00:22;;;;;;;21.53;9.03;;;-0.80;99.90;;;;;;4929132;29;20052;-79
2021/01/26 00:02:50;;;;;;;;;;;-0.80;99.90;;;;;;4949463;29;20051;-79
2021/01/26 00:05:18;;;;;;;18.47;8.97;;;-0.90;99.90;;;;;;4946452;29;19930;-79
2021/01/26 00:07:45;;;;;;;20.67;8.70;;;-0.90;99.90;;;;;;4949590;29;20357;-78
2021/01/26 00:10:13;;;;;;;15.80;6.83;;;-0.90;99.90;;;;;;4956228;29;20380;-78
2021/01/26 00:12:42;;;;;;;21.40;9.37;;;-0.90;99.90;;;;;;4946907;29;20082;-79
2021/01/26 00:15:11;;;;;;;20.73;8.97;;;-1.00;99.90;;;;;;4925419;29;20059;-78
2021/01/26 00:17:41;;;;;;;18.83;8.17;;;-1.00;99.90;;;;;;4942295;29;20066;-79
2021/01/26 00:20:11;;;;;;;13.30;6.57;;;-1.00;99.90;;;;;;4939157;29;20091;-79
2021/01/26 00:22:38;;;;;;;8.87;4.77;;;-1.00;99.90;;;;;;4942997;29;20083;-78
2021/01/26 00:25:07;;;;;;;19.33;7.97;;;-1.00;99.90;;;;;;4941166;29;20063;-78
2021/01/26 00:27:39;;;;;;;20.63;8.77;;;-1.00;99.90;;;;;;4924463;29;20047;-79
2021/01/26 00:30:14;;;;;;;19.30;8.17;;;-1.00;99.90;;;;;;4945693;29;20047;-79
2021/01/26 00:32:41;;;;;;;16.97;7.70;;;-1.00;99.90;;;;;;4939144;29;20055;-79
2021/01/26 00:35:11;;;;;;;11.60;5.20;;;-1.00;99.90;;;;;;4924176;29;20051;-78
2021/01/26 00:37:38;;;;;;;22.00;8.20;;;-1.00;99.90;;;;;;4940621;29;20650;-79
2021/01/26 00:40:07;;;;;;;19.37;8.30;;;-1.00;99.90;;;;;;4944438;28;20047;-79
2021/01/26 00:42:34;;;;;;;16.92;7.68;;;-1.00;99.90;;;;;;4930745;29;20070;-79
2021/01/26 00:45:05;;;;;;;26.97;10.07;;;-1.00;99.90;;;;;;4938122;29;20055;-78
2021/01/26 00:47:32;;;;;;;22.02;9.98;;;-1.00;99.90;;;;;;4938980;29;20055;-79
2021/01/26 00:50:02;;;;;;;17.53;7.17;;;-1.00;99.90;;;;;;4940796;29;20076;-79
2021/01/26 00:52:31;;;;;;;11.07;5.57;;;-1.00;99.90;;;;;;4923146;29;20047;-78
2021/01/26 00:55:08;;;;;;;24.80;10.13;;;-1.00;99.90;;;;;;4925459;29;20055;-79
2021/01/26 00:57:35;;;;;;;24.87;9.47;;;-1.00;99.90;;;;;;4951856;29;20055;-79
2021/01/26 01:00:07;;;;;;;24.73;11.33;;;-0.90;99.90;;;;;;4954404;28;20044;-79
2021/01/26 01:02:37;;;;;;;20.77;9.23;;;-0.90;99.90;;;;;;4932593;29;20059;-79
2021/01/26 01:05:06;;;;;;;23.73;10.03;;;-0.90;99.90;;;;;;4953860;29;20403;-79
2021/01/26 01:07:34;;;;;;;21.20;8.48;;;-0.90;99.90;;;;;;4942452;29;20063;-79
2021/01/26 01:10:05;;;;;;;18.13;7.77;;;-0.90;99.90;;;;;;4950801;29;20058;-79
2021/01/26 01:12:32;;;;;;;23.90;10.23;;;-0.90;99.90;;;;;;4938980;28;20056;-79
2021/01/26 01:14:59;;;;;;;21.70;10.50;;;-1.00;99.90;;;;;;4941303;29;20075;-79
2021/01/26 01:17:26;;;;;;;25.27;10.77;;;-0.90;99.90;;;;;;4923489;29;20048;-79
2021/01/26 01:19:54;;;;;;;22.47;10.23;;;-1.00;99.90;;;;;;4957702;28;20052;-77
2021/01/26 01:22:23;;;;;;;20.03;9.40;;;-0.90;99.90;;;;;;4940603;29;20048;-78
2021/01/26 01:24:55;;;;;;;20.50;10.07;;;-0.90;99.90;;;;;;4960726;28;20487;-77
2021/01/26 01:27:22;;;;;;;17.92;8.30;;;-0.90;99.90;;;;;;4940820;29;20059;-78
2021/01/26 01:29:49;;;;;;;19.07;8.10;;;-0.80;99.90;;;;;;4957275;29;20043;-77
2021/01/26 01:32:16;;;;;;;17.43;8.67;;;-0.90;99.90;;;;;;4941527;28;20070;-78
2021/01/26 01:34:44;;;;;;;18.03;7.87;;;-0.80;99.90;;;;;;4944648;28;20067;-79
2021/01/26 01:37:11;;;;;;;20.40;9.70;;;-0.80;99.90;;;;;;4946189;29;20484;-79
2021/01/26 01:39:39;;;;;;;20.80;9.63;;;-0.80;99.90;;;;;;4943183;29;20047;-79
2021/01/26 01:42:08;;;;;;;23.37;9.67;;;-0.80;99.90;;;;;;4940224;29;20387;-78
2021/01/26 01:44:36;;;;;;;20.83;8.97;;;-0.80;99.90;;;;;;4944716;29;20051;-79
2021/01/26 01:47:07;;;;;;;18.43;9.03;;;-0.80;99.90;;;;;;4948139;29;20058;-79
2021/01/26 01:49:38;;;;;;;21.00;8.10;;;-0.80;99.90;;;;;;4962953;28;20052;-79
2021/01/26 01:52:06;;;;;;;15.93;6.00;;;-0.80;99.90;;;;;;4945145;29;20395;-79
2021/01/26 01:54:39;;;;;;;13.50;6.40;;;-0.80;99.90;;;;;;4934951;29;20047;-77
2021/01/26 01:57:18;;;;;;;15.77;6.97;;;-0.70;99.90;;;;;;4936248;29;20058;-77
2021/01/26 01:59:50;;;;;;;15.13;7.17;;;-0.80;99.90;;;;;;4968683;29;20051;-78
2021/01/26 02:02:18;;;;;;;16.07;6.53;;;-0.80;99.90;;;;;;4959784;29;20059;-78
2021/01/26 02:04:48;;;;;;;13.13;5.80;;;-0.80;99.90;;;;;;4952106;29;20051;-78
2021/01/26 02:07:17;;;;;;;24.20;8.70;;;-0.80;99.90;;;;;;4947586;29;20063;-77
2021/01/26 02:09:45;;;;;;;19.33;7.57;;;-0.80;99.90;;;;;;4941718;29;20051;-77
2021/01/26 02:12:15;;;;;;;14.23;6.97;;;-0.80;99.90;;;;;;4966976;28;20073;-77
2021/01/26 02:14:48;;;;;;;10.32;5.43;;;-0.80;99.90;;;;;;4966802;28;20066;-79
2021/01/26 02:17:28;;;;;;;16.53;8.57;;;-0.80;99.90;;;;;;4982545;28;20483;-79
2021/01/26 02:20:29;;;;;;;15.60;7.20;;;-0.80;99.90;;;;;;4965920;29;20066;-79
2021/01/26 02:23:16;;;;;;;17.07;7.87;;;-0.70;99.90;;;;;;4947750;29;20059;-78
2021/01/26 02:26:15;;;;;;;15.47;7.63;;;-0.70;99.90;;;;;;4966255;29;20065;-78
2021/01/26 02:28:55;;;;;;;17.60;8.47;;;-0.70;99.90;;;;;;4967881;28;20063;-77
2021/01/26 02:31:56;;;;;;;19.08;9.13;;;-0.70;99.90;;;;;;4923979;29;20064;-77
2021/01/26 02:34:53;;;;;;;19.93;9.20;;;-0.70;99.90;;;;;;4945673;29;20493;-79
2021/01/26 02:37:47;;;;;;;19.80;8.70;;;-0.70;99.90;;;;;;4937480;29;20047;-79
2021/01/26 02:40:21;;;;;;;19.60;8.17;;;-0.80;99.90;;;;;;4927706;29;20553;-79
2021/01/26 02:43:10;;;;;;;21.03;8.87;;;-0.80;99.90;;;;;;4957010;29;20066;-80
2021/01/26 02:45:43;;;;;;;21.73;8.60;;;-0.80;99.90;;;;;;4945788;28;20051;-78
2021/01/26 02:48:28;;;;;;;22.63;8.63;;;-0.80;99.90;;;;;;4940896;29;20411;-77
2021/01/26 02:51:01;;;;;;;20.80;8.93;;;-0.80;99.90;;;;;;4904159;29;20392;-77
2021/01/26 02:53:36;;;;;;;23.60;9.47;;;-0.90;99.90;;;;;;4951751;29;20066;-78
2021/01/26 02:56:14;;;;;;;24.63;9.13;;;-0.90;99.90;;;;;;4940089;29;20066;-78
2021/01/26 02:58:47;;;;;;;;;;;-0.80;99.90;;;;;;4942120;29;20067;-79
2021/01/26 03:01:15;;;;;;;22.47;8.63;;;-0.80;99.90;;;;;;4961249;28;19933;-79
2021/01/26 03:03:47;;;;;;;19.93;9.00;;;-0.80;99.90;;;;;;4937729;29;20054;-79
2021/01/26 03:06:18;;;;;;;23.07;10.10;;;-0.80;99.90;;;;;;4927973;29;20064;-78
2021/01/26 03:08:53;;;;;;;24.70;9.97;;;-0.80;99.90;;;;;;4943317;29;20149;-78
2021/01/26 03:11:27;;;;;;;19.27;9.23;;;-0.80;99.90;;;;;;4939084;29;20043;-80
2021/01/26 03:13:58;;;;;;;20.03;8.37;;;-0.80;99.90;;;;;;4957787;28;20055;-79
2021/01/26 03:16:29;;;;;;;16.30;6.90;;;-0.70;99.90;;;;;;4948076;29;20059;-79
2021/01/26 03:19:08;;;;;;;12.60;6.07;;;-0.70;99.90;;;;;;4961876;28;20483;-79
2021/01/26 03:21:38;;;;;;;15.80;8.73;;;-0.70;99.90;;;;;;4961739;29;20055;-79
2021/01/26 03:24:09;;;;;;;19.40;8.43;;;-0.70;99.90;;;;;;4980251;28;20376;-78
2021/01/26 03:26:39;;;;;;;22.47;8.73;;;-0.70;99.90;;;;;;4948540;29;20387;-78
2021/01/26 03:29:11;;;;;;;16.73;8.50;;;-0.80;99.90;;;;;;4931324;29;20059;-78
2021/01/26 03:31:45;;;;;;;22.30;8.77;;;-0.70;99.90;;;;;;4945214;29;20063;-78
2021/01/26 03:34:13;;;;;;;20.00;8.97;;;-0.70;99.90;;;;;;4943446;29;20060;-80
2021/01/26 03:36:43;;;;;;;20.07;9.00;;;-0.70;99.90;;;;;;4946074;29;20063;-78
2021/01/26 03:39:11;;;;;;;18.40;8.53;;;-0.70;99.90;;;;;;4947033;29;20467;-77
2021/01/26 03:41:39;;;;;;;19.48;7.80;;;-0.70;99.90;;;;;;4959872;28;20398;-77
2021/01/26 03:44:10;;;;;;;20.73;8.27;;;-0.70;99.90;;;;;;4959641;28;20070;-77
2021/01/26 03:46:57;;;;;;;23.93;9.13;;;-0.70;99.90;;;;;;4952738;28;20067;-77
2021/01/26 03:49:35;;;;;;;15.07;8.10;;;-0.70;99.90;;;;;;4928928;29;20052;-79
2021/01/26 03:52:14;;;;;;;18.17;8.57;;;-0.60;99.90;;;;;;4922778;29;20425;-79
2021/01/26 03:54:45;;;;;;;19.63;8.47;;;-0.60;99.90;;;;;;4923960;29;20066;-79
2021/01/26 03:57:32;;;;;;;17.63;7.43;;;-0.60;99.90;;;;;;4929199;29;20383;-77
2021/01/26 04:00:11;;;;;;;15.10;8.00;;;-0.60;99.90;;;;;;4943079;29;20506;-77
2021/01/26 04:03:11;;;;;;;17.23;6.77;;;-0.60;99.90;;;;;;4941721;29;20066;-79
2021/01/26 04:05:41;;;;;;;14.47;6.53;;;-0.60;99.90;;;;;;4935382;29;20126;-79
2021/01/26 04:08:15;;;;;;;15.67;6.40;;;-0.50;99.90;;;;;;4949049;29;20058;-79
2021/01/26 04:10:52;;;;;;;15.07;7.07;;;-0.50;99.90;;;;;;4963087;28;20047;-79
2021/01/26 04:13:26;;;;;;;14.10;7.03;;;-0.50;99.90;;;;;;4958101;29;20483;-79
2021/01/26 04:15:57;;;;;;;18.00;6.80;;;-0.50;99.90;;;;;;4934060;29;20060;-79
2021/01/26 04:18:29;;;;;;;14.83;6.23;;;-0.40;99.90;;;;;;4922319;29;20056;-79
2021/01/26 04:20:58;;;;;;;16.47;6.73;;;-0.40;99.90;;;;;;4954486;28;20052;-78
2021/01/26 04:23:27;;;;;;;14.23;6.78;;;-0.30;99.90;;;;;;4933451;29;20056;-79
2021/01/26 04:26:02;;;;;;;;;;;-0.30;99.90;;;;;;4942960;29;20044;-77
2021/01/26 04:28:36;;;;;;;11.47;5.07;;;-0.30;99.90;;;;;;4960087;28;19922;-79
2021/01/26 04:31:04;;;;;;;16.37;5.97;;;-0.30;99.90;;;;;;4947290;29;20052;-79
2021/01/26 04:33:31;;;;;;;12.82;5.60;;;-0.30;99.90;;;;;;4908668;29;20067;-79
2021/01/26 04:35:59;;;;;;;9.93;4.80;;;-0.40;99.90;;;;;;4976036;28;20058;-80
2021/01/26 04:38:26;;;;;;;13.53;5.50;;;-0.30;99.90;;;;;;4950121;29;20062;-79
2021/01/26 04:40:56;;;;;;;11.57;5.67;;;-0.30;99.90;;;;;;4927151;29;20067;-79
2021/01/26 04:43:35;;;;;;;12.53;5.90;;;-0.30;99.90;;;;;;4923777;29;20435;-80
2021/01/26 04:46:13;;;;;;;9.47;5.07;;;-0.30;99.90;;;;;;4935364;29;20062;-79
2021/01/26 04:48:46;;;;;;;13.70;5.83;;;-0.20;99.90;;;;;;4961871;29;20047;-78
2021/01/26 04:51:22;;;;;;;14.90;5.43;;;-0.20;99.90;;;;;;4964922;29;20487;-80
2021/01/26 04:54:17;;;;;;;10.47;4.57;;;-0.20;99.90;;;;;;4951278;28;20058;-79
2021/01/26 04:56:56;;;;;;;9.43;4.90;;;-0.20;99.90;;;;;;4944298;29;20051;-78
2021/01/26 04:59:45;;;;;;;7.57;4.03;;;-0.20;99.90;;;;;;4958121;28;20059;-80
2021/01/26 05:02:52;;;;;;;15.13;5.80;;;-0.10;99.90;;;;;;4926548;29;20058;-78
2021/01/26 05:05:25;;;;;;;12.20;5.20;;;-0.10;99.90;;;;;;4958133;29;20051;-80
2021/01/26 05:07:58;;;;;;;10.00;5.97;;;0.00;99.90;;;;;;4969044;28;20051;-79
2021/01/26 05:10:33;;;;;;;10.17;5.07;;;0.00;99.90;;;;;;4984719;28;20051;-79
2021/01/26 05:13:05;;;;;;;10.60;5.43;;;0.00;99.90;;;;;;4953325;29;20062;-79
2021/01/26 05:15:39;;;;;;;11.53;5.30;;;0.00;99.90;;;;;;4951838;29;20051;-79
2021/01/26 05:18:10;;;;;;;9.87;5.17;;;0.00;99.90;;;;;;4966535;29;20055;-79
2021/01/26 05:20:43;;;;;;;12.03;5.83;;;0.00;99.90;;;;;;4952612;29;20052;-78
2021/01/26 05:23:14;;;;;;;15.63;6.23;;;-0.10;99.90;;;;;;4935307;29;20067;-79
2021/01/26 05:25:41;;;;;;;14.23;5.60;;;-0.10;99.90;;;;;;4940180;29;20065;-79
2021/01/26 05:28:09;;;;;;;9.97;5.27;;;0.00;99.90;;;;;;4933890;29;20051;-79
2021/01/26 05:30:38;;;;;;;11.10;5.00;;;0.00;99.90;;;;;;4931402;29;20063;-79
2021/01/26 05:33:11;;;;;;;9.57;5.07;;;0.10;99.90;;;;;;4947178;29;20051;-79
2021/01/26 05:35:41;;;;;;;9.77;4.70;;;0.10;99.90;;;;;;4950708;29;20059;-80
2021/01/26 05:38:09;;;;;;;13.87;5.47;;;0.10;99.90;;;;;;4959203;28;20063;-79
2021/01/26 05:40:44;;;;;;;11.27;5.63;;;0.10;99.90;;;;;;4940807;29;20066;-79
2021/01/26 05:43:19;;;;;;;11.90;5.53;;;0.20;99.90;;;;;;4929140;29;20056;-79
2021/01/26 05:45:53;;;;;;;10.33;5.23;;;0.10;99.90;;;;;;4956924;29;20522;-79
2021/01/26 05:48:27;;;;;;;12.57;4.90;;;0.20;99.90;;;;;;4908060;29;20468;-79
2021/01/26 05:51:17;;;;;;;8.30;4.63;;;0.20;99.90;;;;;;4923754;29;20059;-79
2021/01/26 05:53:50;;;;;;;11.70;5.43;;;0.20;99.90;;;;;;4927935;29;20070;-80
2021/01/26 05:56:18;;;;;;;11.10;5.07;;;0.20;99.90;;;;;;4953815;29;20066;-79
2021/01/26 05:58:47;;;;;;;11.23;5.27;;;0.30;99.90;;;;;;4961119;29;20062;-79
2021/01/26 06:01:29;;;;;;;10.60;5.30;;;0.30;99.90;;;;;;4958239;29;20400;-79
2021/01/26 06:04:10;;;;;;;10.13;5.07;;;0.30;99.90;;;;;;4927607;29;20075;-79
2021/01/26 06:06:49;;;;;;;10.53;5.00;;;0.40;99.90;;;;;;4940583;29;20479;-79
2021/01/26 06:09:43;;;;;;;12.27;5.43;;;0.40;99.90;;;;;;4948817;29;20063;-79
2021/01/26 06:12:16;;;;;;;10.53;5.50;;;0.40;99.90;;;;;;4921924;29;20067;-79
2021/01/26 06:14:46;;;;;;;9.97;5.30;;;0.40;99.90;;;;;;4946608;29;20472;-80
2021/01/26 06:17:22;;;;;;;10.27;5.70;;;0.40;99.90;;;;;;4926006;29;20048;-79
2021/01/26 06:20:07;;;;;;;11.27;5.60;;;0.50;99.90;;;;;;4944974;29;20059;-79
2021/01/26 06:22:36;;;;;;;10.63;5.67;;;0.50;99.90;;;;;;4945766;29;20067;-79
2021/01/26 06:25:09;;;;;;;9.37;4.97;;;0.40;99.90;;;;;;4960973;29;20051;-79
2021/01/26 06:27:52;;;;;;;11.23;5.00;;;0.40;99.90;;;;;;4947479;29;20619;-78
2021/01/26 06:30:32;;;;;;;11.67;6.23;;;0.30;99.90;;;;;;4977038;28;20475;-79
2021/01/26 06:33:33;;;;;;;12.30;6.70;;;0.30;99.90;;;;;;4956255;28;20044;-81
2021/01/26 06:36:11;;;;;;;13.67;5.70;;;0.40;99.90;;;;;;4930344;29;20056;-78
2021/01/26 06:38:43;;;;;;;;;;;0.40;99.90;;;;;;4938054;29;20047;-79
2021/01/26 06:41:27;;;;;;;14.43;6.20;;;0.40;99.90;;;;;;4934002;29;19922;-79
2021/01/26 06:44:25;;;;;;;11.93;6.00;;;0.40;99.90;;;;;;4968679;29;20051;-79
2021/01/26 06:47:15;;;;;;;13.23;6.28;;;0.40;99.90;;;;;;4968092;29;20073;-79
2021/01/26 06:49:53;;;;;;;14.40;6.97;;;0.40;99.90;;;;;;4955771;28;20387;-79
2021/01/26 06:52:28;;;;;;;18.10;8.30;;;0.40;99.90;;;;;;4930004;29;20048;-79
2021/01/26 06:55:13;;;;;;;16.20;7.20;;;0.40;99.90;;;;;;4940237;29;20070;-80
2021/01/26 06:58:28;;;;;;;15.27;7.37;;;0.40;99.90;;;;;;4955782;28;20075;-80
2021/01/26 07:01:10;;;;;;;13.43;7.20;;;0.50;99.90;;;;;;4935070;29;20051;-80
2021/01/26 07:04:21;;;;;;;12.33;7.47;;;0.50;99.90;;;;;;4941424;29;20052;-79
2021/01/26 07:07:08;;;;;;;15.20;7.73;;;0.40;99.90;;;;;;4945632;28;20064;-81
2021/01/26 07:09:58;;;;;;;19.63;8.50;;;0.50;99.90;;;;;;4961963;28;20050;-81
2021/01/26 07:12:54;;;;;;;14.93;8.07;;;0.50;99.90;;;;;;4971123;28;20246;-79
2021/01/26 07:15:34;;;;;;;23.00;9.90;;;0.60;99.90;;;;;;4929800;29;20048;-79
2021/01/26 07:18:27;;;;;;;19.10;10.30;;;0.60;99.90;;;;;;4948858;29;20067;-79
2021/01/26 07:21:06;;;;;;;16.37;9.50;;;0.60;99.90;;;;;;4938112;29;20065;-80
2021/01/26 07:23:55;;;;;;;25.03;9.90;;;0.60;99.90;;;;;;4945590;29;20064;-79
2021/01/26 07:26:49;;;;;;;16.13;8.33;;;0.70;99.90;;;;;;4927988;28;20463;-80
2021/01/26 07:29:45;;;;;;;19.17;9.37;;;0.60;99.90;;;;;;4935694;29;20063;-79
2021/01/26 07:32:20;;;;;;;14.90;8.50;;;0.60;99.90;;;;;;4939532;29;20056;-80
2021/01/26 07:34:58;;;;;;;20.63;9.47;;;0.60;99.90;;;;;;4934634;29;20364;-80
2021/01/26 07:37:33;;;;;;;20.17;9.30;;;0.50;99.90;;;;;;4975453;28;20062;-80
2021/01/26 07:40:15;;;;;;;17.10;8.27;;;0.50;99.90;;;;;;4971341;23;20056;-80
2021/01/26 07:42:50;;;;;;;20.27;9.57;;;0.60;99.90;;;;;;4924767;29;20618;-81
2021/01/26 07:45:22;;;;;;;17.00;9.57;;;0.60;99.90;;;;;;4933667;29;20050;-80
2021/01/26 07:47:59;;;;;;;20.47;10.13;;;0.60;99.90;;;;;;4936822;29;20056;-81
2021/01/26 07:50:31;;;;;;;22.43;11.77;;;0.50;99.90;;;;;;4896238;29;20056;-80
2021/01/26 07:53:12;;;;;;;21.10;11.80;;;0.50;99.90;;;;;;4941365;29;20032;-83
2021/01/26 07:56:01;;;;;;;25.33;10.83;;;0.50;99.90;;;;;;5036143;23;20061;-83
2021/01/26 08:01:28;;;;;;;20.73;11.57;;;0.60;99.90;;;;;;4944488;29;20047;-85
2021/01/26 08:04:06;;;;;;;27.47;12.23;;;0.50;99.90;;;;;;4972503;28;20058;-78
2021/01/26 08:06:57;;;;;;;22.57;11.40;;;0.50;99.90;;;;;;4968850;28;20482;-81
2021/01/26 08:09:38;;;;;;;23.20;11.70;;;0.60;99.90;;;;;;4946157;29;20063;-79
2021/01/26 08:12:12;;;;;;;20.80;11.00;;;0.60;99.90;;;;;;4976060;28;20051;-80
2021/01/26 08:14:46;;;;;;;19.93;10.43;;;0.60;99.90;;;;;;4967411;28;20058;-80
2021/01/26 08:17:16;;;;;;;23.40;11.17;;;0.60;99.90;;;;;;4961504;29;20474;-79
2021/01/26 08:19:50;;;;;;;23.90;11.43;;;0.60;99.90;;;;;;4960545;28;20051;-81
2021/01/26 08:22:22;;;;;;;23.17;11.00;;;0.60;99.90;;;;;;4961299;29;20062;-81
2021/01/26 08:25:00;;;;;;;21.60;10.90;;;0.70;99.90;;;;;;4963327;28;20054;-80
2021/01/26 08:27:49;;;;;;;23.07;10.30;;;0.60;99.90;;;;;;4961653;29;20051;-81
2021/01/26 08:30:23;;;;;;;22.75;11.55;;;0.70;99.90;;;;;;4944993;29;20055;-82
2021/01/26 08:33:15;;;;;;;27.03;11.13;;;0.70;99.90;;;;;;4949688;29;20062;-80
2021/01/26 08:36:02;;;;;;;30.67;11.20;;;0.80;99.90;;;;;;4941669;29;20365;-80
2021/01/26 08:38:56;;;;;;;22.85;11.20;;;0.80;99.90;;;;;;4949273;29;20051;-81
2021/01/26 08:41:40;;;;;;;18.73;10.20;;;0.80;99.90;;;;;;4964308;29;20070;-80
2021/01/26 08:44:53;;;;;;;23.77;11.90;;;0.80;99.90;;;;;;4960713;29;20051;-81
2021/01/26 08:47:50;;;;;;;20.83;10.90;;;0.90;99.90;;;;;;4948809;29;20058;-81
2021/01/26 08:50:28;;;;;;;27.97;13.83;;;0.90;99.90;;;;;;4948657;29;20084;-79
2021/01/26 08:53:15;;;;;;;24.47;12.73;;;1.00;99.90;;;;;;4947427;29;20058;-80
2021/01/26 08:55:45;;;;;;;25.13;12.27;;;1.00;99.90;;;;;;4963937;28;20059;-81
2021/01/26 08:58:34;;;;;;;27.40;14.57;;;1.10;99.90;;;;;;4945400;29;20066;-80
2021/01/26 09:01:06;;;;;;;27.40;12.80;;;1.20;99.90;;;;;;4960143;29;20047;-80
2021/01/26 09:03:39;;;;;;;33.67;14.53;;;1.30;99.90;;;;;;4960490;29;20048;-81
2021/01/26 09:06:08;;;;;;;22.37;11.17;;;1.40;99.90;;;;;;4960585;29;20059;-81
2021/01/26 09:08:52;;;;;;;24.13;11.00;;;1.40;99.90;;;;;;4960401;28;20059;-80
2021/01/26 09:11:48;;;;;;;21.07;10.67;;;1.30;99.90;;;;;;4960585;28;20059;-81
2021/01/26 09:14:32;;;;;;;21.17;11.50;;;1.30;99.90;;;;;;4960349;29;20054;-80
2021/01/26 09:17:03;;;;;;;19.97;10.30;;;1.40;99.90;;;;;;4960797;28;20145;-79
2021/01/26 09:19:41;;;;;;;20.63;9.07;;;1.40;99.90;;;;;;4962823;28;20055;-80
2021/01/26 09:22:12;;;;;;;19.03;10.03;;;1.30;99.90;;;;;;4945118;29;20066;-80
2021/01/26 09:24:43;;;;;;;25.47;11.00;;;1.30;99.90;;;;;;4942007;29;20062;-80
2021/01/26 09:27:21;;;;;;;;;;;1.30;99.90;;;;;;4958292;28;20051;-80
2021/01/26 09:30:22;;;;;;;18.60;10.17;;;1.30;99.90;;;;;;4958328;29;19933;-81
2021/01/26 09:32:59;;;;;;;;;;;1.40;99.90;;;;;;4868327;29;20052;-80
2021/01/26 09:35:33;;;;;;;20.50;9.53;;;1.40;99.90;;;;;;4931491;29;19922;-80
2021/01/26 09:38:13;;;;;;;21.90;10.73;;;1.40;99.90;;;;;;4964170;28;20059;-82
2021/01/26 09:40:42;;;;;;;19.00;9.50;;;1.40;99.90;;;;;;4961890;29;20051;-80
2021/01/26 09:43:11;;;;;;;;;;;1.50;99.90;;;;;;4962367;28;20051;-80
2021/01/26 09:45:39;;;;;;;19.50;9.37;;;1.60;99.90;;;;;;4959283;28;19922;-80
2021/01/26 09:48:12;;;;;;;20.88;9.88;;;1.50;99.90;;;;;;4958349;29;20055;-79
2021/01/26 09:50:40;;;;;;;20.20;10.53;;;1.60;99.90;;;;;;4943034;29;20051;-81
2021/01/26 09:53:08;;;;;;;18.67;10.03;;;1.70;99.90;;;;;;4958473;28;20047;-79
2021/01/26 09:55:36;;;;;;;21.60;10.33;;;1.80;99.90;;;;;;4943714;29;20070;-81
2021/01/26 09:58:04;;;;;;;18.45;9.77;;;1.90;99.90;;;;;;4959570;29;20062;-80
2021/01/26 10:00:37;;;;;;;15.20;8.20;;;1.90;99.90;;;;;;4958582;28;20066;-80
2021/01/26 10:03:08;;;;;;;16.13;7.90;;;1.90;99.90;;;;;;4943956;29;20296;-81
2021/01/26 10:05:39;;;;;;;16.57;9.80;;;1.80;99.90;;;;;;4961241;28;20070;-81
2021/01/26 10:08:23;;;;;;;24.43;9.67;;;1.70;99.90;;;;;;4962155;29;20062;-80
2021/01/26 10:10:51;;;;;;;23.93;9.60;;;1.80;99.90;;;;;;4962523;28;20399;-80
2021/01/26 10:13:30;;;;;;;17.75;9.05;;;1.80;99.90;;;;;;4943101;29;20055;-80
2021/01/26 10:15:59;;;;;;;18.25;9.73;;;1.80;99.90;;;;;;4959671;29;20062;-80
2021/01/26 10:18:32;;;;;;;24.37;10.03;;;1.90;99.90;;;;;;4944193;29;20051;-80
2021/01/26 10:21:06;;;;;;;20.07;9.60;;;2.00;99.90;;;;;;4944434;29;20047;-81
2021/01/26 10:23:36;;;;;;;17.47;9.67;;;2.10;99.90;;;;;;4963527;29;20047;-80
2021/01/26 10:26:24;;;;;;;27.13;9.97;;;2.20;99.90;;;;;;4964106;28;20387;-79
2021/01/26 10:29:17;;;;;;;25.87;10.23;;;2.20;99.90;;;;;;4941376;29;20059;-80
2021/01/26 10:31:48;;;;;;;17.40;8.97;;;2.40;99.90;;;;;;4938982;29;20051;-79
2021/01/26 10:34:34;;;;;;;17.10;8.27;;;2.50;99.90;;;;;;4959130;28;20063;-80
2021/01/26 10:37:15;;;;;;;20.27;9.30;;;2.50;99.90;;;;;;4959851;29;20066;-79
2021/01/26 10:39:44;;;;;;;18.83;9.88;;;2.50;99.90;;;;;;4959598;29;20055;-79
2021/01/26 10:42:18;;;;;;;23.03;10.40;;;2.60;99.90;;;;;;4942748;28;20047;-80
2021/01/26 10:44:48;;;;;;;22.83;9.47;;;2.60;99.90;;;;;;4957818;29;20486;-79
2021/01/26 10:47:18;;;;;;;17.77;8.90;;;2.60;99.90;;;;;;4926525;29;20059;-79
2021/01/26 10:49:55;;;;;;;21.73;9.63;;;2.60;99.90;;;;;;4941650;29;20506;-78
2021/01/26 10:52:38;;;;;;;16.23;9.03;;;2.60;99.90;;;;;;4958889;28;20055;-82
2021/01/26 10:55:07;;;;;;;16.50;8.70;;;2.60;99.90;;;;;;4958382;28;20074;-81
2021/01/26 10:57:35;;;;;;;16.73;9.00;;;2.70;99.90;;;;;;4958171;29;20055;-79
2021/01/26 11:00:07;;;;;;;17.83;10.17;;;2.60;99.90;;;;;;4958450;28;20471;-77
2021/01/26 11:02:35;;;;;;;16.93;8.67;;;2.50;99.90;;;;;;4961729;29;20047;-80
2021/01/26 11:05:05;;;;;;;22.50;8.88;;;2.30;99.90;;;;;;4966034;28;20059;-79
2021/01/26 11:07:35;;;;;;;17.40;9.57;;;2.20;99.90;;;;;;4965723;29;20062;-79
2021/01/26 11:10:07;;;;;;;17.50;9.07;;;2.20;99.90;;;;;;4945853;29;20055;-78
2021/01/26 11:12:40;;;;;;;17.77;9.43;;;2.20;99.90;;;;;;4947681;29;20062;-79
2021/01/26 11:15:11;;;;;;;17.37;9.77;;;2.20;99.90;;;;;;4961463;29;20489;-79
2021/01/26 11:17:41;;;;;;;18.23;10.53;;;2.40;99.90;;;;;;4963181;28;20055;-78
2021/01/26 11:20:13;;;;;;;18.77;10.47;;;2.60;99.90;;;;;;4964270;28;20070;-80
2021/01/26 11:22:41;;;;;;;17.23;10.15;;;2.70;99.90;;;;;;4967088;29;20051;-80
2021/01/26 11:25:10;;;;;;;20.27;9.97;;;2.80;99.90;;;;;;4950481;29;20423;-79
2021/01/26 11:27:37;;;;;;;19.58;9.98;;;2.90;99.90;;;;;;4964971;29;20256;-82
2021/01/26 11:30:06;;;;;;;18.70;10.30;;;3.00;99.90;;;;;;4965864;28;20055;-81
2021/01/26 11:32:34;;;;;;;16.60;9.80;;;3.00;99.90;;;;;;4962930;29;20066;-81
2021/01/26 11:35:02;;;;;;;18.13;10.57;;;3.10;99.90;;;;;;4962633;29;20055;-81
2021/01/26 11:37:34;;;;;;;21.83;11.87;;;3.10;99.90;;;;;;4964144;28;20055;-82
2021/01/26 11:40:03;;;;;;;22.87;11.50;;;3.20;99.90;;;;;;4960518;29;20051;-83
2021/01/26 11:42:35;;;;;;;20.90;11.37;;;3.20;99.90;;;;;;4962050;29;20043;-79
2021/01/26 11:45:08;;;;;;;19.67;11.03;;;3.20;99.90;;;;;;4961501;28;20453;-80
2021/01/26 11:47:36;;;;;;;20.23;11.10;;;3.20;99.90;;;;;;4947435;29;20059;-80
2021/01/26 11:50:06;;;;;;;21.53;11.90;;;3.20;99.90;;;;;;4966522;29;20092;-81
2021/01/26 11:52:34;;;;;;;23.87;11.80;;;3.10;99.90;;;;;;4992997;28;20312;-80
2021/01/26 11:55:06;;;;;;;21.77;11.83;;;3.10;99.90;;;;;;4968271;29;20074;-82
2021/01/26 11:57:34;;;;;;;22.43;13.13;;;3.20;99.90;;;;;;4960837;28;20485;-81
2021/01/26 12:00:03;;;;;;;22.08;11.38;;;3.20;99.90;;;;;;4960502;29;20162;-80
2021/01/26 12:02:41;;;;;;;29.58;12.93;;;3.10;99.90;;;;;;4961577;28;20490;-81
2021/01/26 12:05:10;;;;;;;25.80;12.90;;;3.10;99.90;;;;;;4945107;29;20055;-80
2021/01/26 12:07:39;;;;;;;23.50;12.77;;;3.20;99.90;;;;;;4944256;29;20054;-79
2021/01/26 12:10:11;;;;;;;26.47;12.80;;;3.20;99.90;;;;;;4960020;29;20051;-78
2021/01/26 12:12:39;;;;;;;23.43;12.70;;;3.20;99.90;;;;;;4959496;29;20066;-80
2021/01/26 12:15:09;;;;;;;28.30;13.07;;;3.20;99.90;;;;;;4959867;28;20059;-79
2021/01/26 12:17:39;;;;;;;24.07;12.83;;;3.30;99.90;;;;;;4959368;28;20074;-81
2021/01/26 12:20:08;;;;;;;24.37;13.40;;;3.40;99.90;;;;;;4959033;28;20059;-79
2021/01/26 12:22:40;;;;;;;21.80;12.67;;;3.40;99.90;;;;;;4960327;28;20055;-80
2021/01/26 12:25:09;;;;;;;26.13;13.97;;;3.40;99.90;;;;;;4959361;28;20059;-78
2021/01/26 12:27:40;;;;;;;29.20;14.03;;;3.50;99.90;;;;;;4959436;29;20059;-79
2021/01/26 12:30:14;;;;;;;26.17;13.35;;;3.50;99.90;;;;;;4958957;28;20079;-80
2021/01/26 12:32:42;;;;;;;26.57;12.90;;;3.50;99.90;;;;;;4942318;29;20051;-81
2021/01/26 12:35:17;;;;;;;25.87;13.17;;;3.50;99.90;;;;;;4944050;29;20051;-79
2021/01/26 12:37:46;;;;;;;25.15;13.05;;;3.50;99.90;;;;;;4969549;28;20054;-82
2021/01/26 12:40:14;;;;;;;;;;;3.60;99.90;;;;;;4960461;28;20447;-79
2021/01/26 12:42:42;;;;;;;23.52;11.23;;;3.60;99.90;;;;;;4958532;29;19930;-79
2021/01/26 12:45:13;;;;;;;23.90;13.10;;;3.70;99.90;;;;;;4957888;29;20387;-80
2021/01/26 12:47:40;;;;;;;29.20;13.67;;;3.70;99.90;;;;;;4958634;28;20047;-79
2021/01/26 12:50:11;;;;;;;27.15;13.55;;;3.70;99.90;;;;;;4959435;29;20066;-78
2021/01/26 12:52:42;;;;;;;25.20;13.70;;;3.70;99.90;;;;;;4960022;29;20467;-79
2021/01/26 12:55:12;;;;;;;27.97;12.57;;;3.70;99.90;;;;;;4958747;29;20131;-80
2021/01/26 12:57:42;;;;;;;28.40;14.43;;;3.50;99.90;;;;;;4980888;28;20058;-80
2021/01/26 13:00:16;;;;;;;28.13;14.97;;;3.50;99.90;;;;;;4963068;28;20051;-79
2021/01/26 13:02:47;;;;;;;26.60;13.77;;;3.40;99.90;;;;;;4958539;29;20066;-81
2021/01/26 13:05:21;;;;;;;32.25;15.40;;;3.30;99.90;;;;;;4942475;29;20432;-79
2021/01/26 13:07:49;;;;;;;27.63;14.20;;;3.20;99.90;;;;;;4943412;29;20055;-81
2021/01/26 13:10:22;;;;;;;29.43;15.23;;;3.10;99.90;;;;;;4960245;29;20051;-79
2021/01/26 13:12:50;;;;;;;24.40;14.03;;;3.10;99.90;;;;;;4958187;29;20051;-81
2021/01/26 13:15:21;;;;;;;39.00;15.43;;;3.20;99.90;;;;;;4959035;28;20070;-80
2021/01/26 13:17:53;;;;;;;25.97;13.60;;;3.20;99.90;;;;;;4958146;29;20432;-79
2021/01/26 13:20:22;;;;;;;27.97;14.33;;;3.20;99.90;;;;;;4942651;29;20051;-83
2021/01/26 13:22:51;;;;;;;;;;;3.20;99.90;;;;;;4942888;29;20051;-81
2021/01/26 13:25:25;;;;;;;28.17;14.67;;;3.20;99.90;;;;;;4957907;29;19922;-80